createdAt,value
2022-11-30T00:02:20.260Z,8.38
2022-11-30T00:04:47.675Z,8.10
2022-11-30T00:07:25.356Z,8.15
2022-11-30T00:09:54.166Z,8.37
2022-11-30T00:12:24.319Z,8.30
2022-11-30T00:14:51.449Z,8.13
2022-11-30T00:17:18.823Z,7.88
2022-11-30T00:19:46.425Z,8.15
2022-11-30T00:22:16.200Z,8.03
2022-11-30T00:24:45.473Z,8.60
2022-11-30T00:27:13.660Z,8.85
2022-11-30T00:29:42.548Z,8.75
2022-11-30T00:32:11.179Z,8.30
2022-11-30T00:34:38.103Z,7.77
2022-11-30T00:37:05.471Z,7.88
2022-11-30T00:39:35.624Z,8.02
2022-11-30T00:42:03.907Z,8.57
2022-11-30T00:44:37.281Z,8.30
2022-11-30T00:47:08.820Z,8.20
2022-11-30T00:49:36.063Z,7.55
2022-11-30T00:52:04.288Z,7.97
2022-11-30T00:54:39.272Z,8.02
2022-11-30T00:57:11.657Z,7.93
2022-11-30T00:59:40.156Z,7.47
2022-11-30T01:02:11.355Z,8.10
2022-11-30T01:04:39.654Z,8.50
2022-11-30T01:07:09.847Z,8.75
2022-11-30T01:09:42.708Z,7.97
2022-11-30T01:12:11.827Z,8.13
2022-11-30T01:14:47.537Z,8.00
2022-11-30T01:17:21.485Z,8.68
2022-11-30T01:19:50.006Z,7.75
2022-11-30T01:22:23.318Z,8.07
2022-11-30T01:24:53.548Z,8.33
2022-11-30T01:27:22.936Z,8.68
2022-11-30T01:29:53.956Z,7.70
2022-11-30T01:32:23.298Z,8.38
2022-11-30T01:34:52.650Z,7.70
2022-11-30T01:37:29.654Z,8.30
2022-11-30T01:40:01.449Z,7.70
2022-11-30T01:42:29.347Z,7.50
2022-11-30T01:45:07.275Z,7.80
2022-11-30T01:47:40.069Z,7.28
2022-11-30T01:50:10.880Z,8.30
2022-11-30T01:52:46.812Z,8.80
2022-11-30T01:55:30.748Z,8.90
2022-11-30T01:58:16.053Z,8.27
2022-11-30T02:00:47.386Z,8.60
2022-11-30T02:03:27.176Z,7.60
2022-11-30T02:05:55.655Z,8.27
2022-11-30T02:08:25.528Z,8.40
2022-11-30T02:10:58.506Z,9.02
2022-11-30T02:16:31.979Z,8.27
2022-11-30T02:19:18.184Z,7.97
2022-11-30T02:22:01.689Z,7.72
2022-11-30T02:25:07.323Z,8.10
2022-11-30T02:28:20.405Z,7.82
2022-11-30T02:30:54.556Z,7.77
2022-11-30T02:33:37.195Z,7.30
2022-11-30T02:36:12.919Z,7.72
2022-11-30T02:47:47.842Z,7.03
2022-11-30T02:50:49.255Z,7.22
2022-11-30T02:53:22.607Z,8.02
2022-11-30T02:56:03.839Z,7.00
2022-11-30T03:01:27.060Z,7.32
2022-11-30T03:04:00.857Z,6.88
2022-11-30T03:06:38.130Z,7.75
2022-11-30T03:20:34.130Z,7.00
2022-11-30T03:31:41.550Z,7.20
2022-11-30T03:37:14.391Z,7.90
2022-11-30T03:45:27.546Z,8.05
2022-11-30T03:48:03.953Z,7.25
2022-11-30T03:50:44.283Z,6.68
2022-11-30T03:56:29.311Z,7.45
2022-11-30T03:59:13.874Z,7.47
2022-11-30T04:01:44.826Z,7.75
2022-11-30T04:04:21.200Z,7.93
2022-11-30T04:09:35.204Z,7.65
2022-11-30T04:17:38.720Z,7.63
2022-11-30T04:20:19.682Z,7.47
2022-11-30T04:33:55.503Z,6.30
2022-11-30T04:36:31.237Z,5.57
2022-11-30T04:41:57.763Z,6.28
2022-11-30T04:44:26.763Z,6.95
2022-11-30T04:46:57.227Z,6.97
2022-11-30T04:49:34.810Z,5.70
2022-11-30T04:52:11.044Z,7.15
2022-11-30T04:54:47.441Z,7.05
2022-11-30T04:57:16.720Z,7.00
2022-11-30T04:59:46.938Z,6.70
2022-11-30T05:02:16.089Z,7.03
2022-11-30T05:04:45.984Z,6.93
2022-11-30T05:07:18.360Z,7.70
2022-11-30T05:09:47.659Z,7.82
2022-11-30T05:12:22.601Z,7.33
2022-11-30T05:14:55.125Z,7.90
2022-11-30T05:17:28.985Z,7.07
2022-11-30T05:19:58.181Z,7.28
2022-11-30T05:22:34.222Z,7.88
2022-11-30T05:25:01.620Z,7.47
2022-11-30T05:27:38.128Z,8.27
2022-11-30T05:30:11.549Z,6.82
2022-11-30T05:32:40.999Z,7.05
2022-11-30T05:35:10.808Z,7.95
2022-11-30T05:37:39.455Z,7.03
2022-11-30T05:40:10.316Z,6.90
2022-11-30T05:42:41.319Z,6.28
2022-11-30T05:45:11.440Z,7.15
2022-11-30T05:47:44.460Z,7.28
2022-11-30T05:50:29.025Z,7.53
2022-11-30T05:53:01.538Z,6.82
2022-11-30T05:55:41.299Z,6.85
2022-11-30T06:14:53.474Z,6.15
2022-11-30T06:17:38.684Z,6.55
2022-11-30T06:27:40.521Z,6.53
2022-11-30T06:33:22.266Z,3.60
2022-11-30T06:35:49.255Z,3.80
2022-11-30T06:38:16.275Z,5.97
2022-11-30T06:40:43.887Z,4.30
2022-11-30T06:43:20.963Z,3.45
2022-11-30T06:45:49.003Z,2.83
2022-11-30T06:48:18.884Z,2.93
2022-11-30T06:50:49.885Z,3.67
2022-11-30T06:53:17.239Z,2.20
2022-11-30T06:56:15.626Z,2.53
2022-11-30T07:27:35.947Z,7.32
2022-11-30T07:30:02.685Z,7.73
2022-11-30T07:32:29.284Z,7.28
2022-11-30T07:34:55.704Z,7.93
2022-11-30T07:37:44.774Z,7.45
2022-11-30T07:40:35.506Z,8.18
2022-11-30T07:43:02.092Z,6.77
2022-11-30T07:45:28.634Z,8.13
2022-11-30T09:03:40.680Z,8.32
2022-11-30T09:06:08.889Z,8.20
2022-11-30T09:08:39.544Z,8.20
2022-11-30T09:11:16.564Z,8.43
2022-11-30T09:13:45.415Z,8.07
2022-11-30T09:16:13.235Z,7.43
2022-11-30T09:18:40.384Z,8.48
2022-11-30T09:21:09.689Z,7.33
2022-11-30T09:23:37.508Z,8.43
2022-11-30T09:26:07.799Z,7.93
2022-11-30T09:28:38.686Z,7.78
2022-11-30T09:31:08.815Z,8.07
2022-11-30T09:33:36.053Z,8.73
2022-11-30T09:36:06.309Z,8.93
2022-11-30T09:39:09.601Z,9.88
2022-11-30T09:42:11.984Z,8.18
2022-11-30T09:45:09.314Z,8.88
2022-11-30T09:53:43.916Z,9.05
2022-11-30T09:56:23.626Z,9.45
2022-11-30T09:58:56.475Z,9.98
2022-11-30T10:01:23.286Z,9.70
2022-11-30T10:03:50.003Z,9.80
2022-11-30T10:06:31.877Z,10.50
2022-11-30T10:09:06.674Z,10.02
2022-11-30T10:11:42.644Z,10.57
2022-11-30T10:14:21.759Z,10.20
2022-11-30T10:17:11.573Z,9.98
2022-11-30T10:20:00.727Z,10.27
2022-11-30T10:22:50.544Z,10.80
2022-11-30T10:25:23.842Z,11.15
2022-11-30T10:27:53.399Z,10.87
2022-11-30T10:30:22.567Z,10.48
2022-11-30T10:32:53.939Z,10.32
2022-11-30T10:35:35.619Z,10.55
2022-11-30T10:38:17.021Z,11.25
2022-11-30T10:40:49.572Z,10.90
2022-11-30T10:43:27.380Z,11.10
2022-11-30T10:45:54.225Z,11.55
2022-11-30T10:48:31.476Z,11.15
2022-11-30T10:51:00.641Z,10.60
2022-11-30T10:53:27.430Z,10.87
2022-11-30T10:56:10.348Z,9.80
2022-11-30T10:58:44.911Z,13.32
2022-11-30T11:01:33.228Z,10.50
2022-11-30T11:04:13.120Z,10.25
2022-11-30T11:06:47.015Z,10.10
2022-11-30T11:09:37.334Z,10.45
2022-11-30T11:12:25.095Z,28.08
2022-11-30T11:15:10.031Z,16.35
2022-11-30T11:17:36.608Z,13.02
2022-11-30T11:20:03.541Z,9.73
2022-11-30T11:22:31.369Z,11.60
2022-11-30T11:25:22.668Z,9.02
2022-11-30T11:27:54.857Z,11.20
2022-11-30T11:30:25.380Z,8.88
2022-11-30T11:33:15.544Z,9.23
2022-11-30T11:35:49.468Z,35.78
2022-11-30T11:39:32.886Z,34.67
2022-11-30T11:42:00.508Z,10.95
2022-11-30T11:44:28.165Z,9.00
2022-11-30T11:46:58.283Z,11.73
2022-11-30T11:49:31.781Z,13.32
2022-11-30T11:52:02.415Z,10.15
2022-11-30T11:54:36.486Z,13.00
2022-11-30T11:57:03.091Z,9.15
2022-11-30T11:59:42.557Z,14.20
2022-11-30T12:02:19.336Z,9.73
2022-11-30T12:04:50.027Z,10.10
2022-11-30T12:07:38.555Z,9.18
2022-11-30T12:10:49.484Z,8.55
2022-11-30T12:13:01.652Z,9.03
2022-11-30T12:15:36.936Z,8.95
2022-11-30T12:18:23.787Z,9.75
2022-11-30T12:24:03.524Z,10.10
2022-11-30T12:26:47.292Z,9.80
2022-11-30T12:29:32.229Z,9.07
2022-11-30T12:32:34.863Z,9.45
2022-11-30T12:35:15.635Z,9.02
2022-11-30T12:38:03.036Z,10.57
2022-11-30T12:40:53.065Z,10.10
2022-11-30T12:43:41.576Z,10.20
2022-11-30T12:46:22.495Z,10.27
2022-11-30T12:49:04.109Z,10.00
2022-11-30T12:51:40.537Z,11.43
2022-11-30T12:54:32.460Z,10.17
2022-11-30T12:57:23.692Z,9.70
2022-11-30T13:00:40.327Z,10.80
2022-11-30T13:03:39.137Z,10.07
2022-11-30T13:06:12.103Z,10.40
2022-11-30T13:08:48.675Z,10.13
2022-11-30T13:11:25.001Z,10.35
2022-11-30T13:13:56.350Z,10.85
2022-11-30T13:16:25.499Z,10.18
2022-11-30T13:19:01.964Z,10.60
2022-11-30T13:21:44.301Z,10.33
2022-11-30T13:24:21.206Z,10.48
2022-11-30T13:30:17.330Z,9.25
2022-11-30T13:33:00.297Z,10.38
2022-11-30T13:35:27.943Z,9.07
2022-11-30T13:38:34.553Z,10.98
2022-11-30T13:41:03.213Z,10.25
2022-11-30T13:43:47.895Z,9.65
2022-11-30T13:46:21.282Z,9.88
2022-11-30T13:48:48.552Z,9.77
2022-11-30T13:51:36.826Z,9.85
2022-11-30T13:54:40.747Z,8.52
2022-11-30T13:57:28.752Z,8.75
2022-11-30T13:59:57.626Z,9.85
2022-11-30T14:02:32.383Z,9.23
2022-11-30T14:05:42.701Z,8.20
2022-11-30T14:08:12.330Z,8.55
2022-11-30T14:10:47.122Z,7.95
2022-11-30T14:13:14.277Z,7.85
2022-11-30T14:15:41.860Z,8.00
2022-11-30T14:18:08.423Z,6.55
2022-11-30T14:20:45.041Z,6.28
2022-11-30T14:23:20.145Z,6.68
2022-11-30T14:25:55.513Z,6.50
2022-11-30T14:28:28.237Z,7.30
2022-11-30T14:30:57.034Z,6.32
2022-11-30T14:33:43.295Z,7.10
2022-11-30T14:36:11.415Z,6.70
2022-11-30T14:38:42.421Z,6.95
2022-11-30T14:41:28.886Z,6.20
2022-11-30T14:44:12.125Z,7.07
2022-11-30T14:46:39.661Z,7.50
2022-11-30T14:49:14.130Z,7.15
2022-11-30T14:51:43.454Z,6.72
2022-11-30T14:54:39.250Z,7.97
2022-11-30T14:57:16.126Z,7.93
2022-11-30T14:59:48.055Z,7.53
2022-11-30T15:02:38.753Z,7.63
2022-11-30T15:05:07.669Z,7.30
2022-11-30T15:07:36.647Z,7.57
2022-11-30T15:10:10.355Z,7.43
2022-11-30T15:12:40.589Z,7.10
2022-11-30T15:15:14.799Z,7.38
2022-11-30T15:17:49.188Z,7.38
2022-11-30T15:20:18.812Z,6.77
2022-11-30T15:22:45.523Z,7.47
2022-11-30T15:25:13.138Z,11.95
2022-11-30T15:27:40.154Z,8.65
2022-11-30T15:30:07.961Z,7.75
2022-11-30T15:32:36.028Z,7.03
2022-11-30T15:35:02.838Z,6.78
2022-11-30T15:37:31.505Z,7.40
2022-11-30T15:40:01.008Z,7.68
2022-11-30T15:42:31.905Z,7.07
2022-11-30T15:45:25.946Z,9.43
2022-11-30T15:47:54.641Z,8.20
2022-11-30T15:50:35.470Z,8.35
2022-11-30T15:53:20.666Z,7.57
2022-11-30T15:55:51.137Z,7.38
2022-11-30T15:58:39.265Z,7.30
2022-11-30T16:01:11.323Z,6.85
2022-11-30T16:03:58.089Z,7.55
2022-11-30T16:06:33.184Z,7.30
2022-11-30T16:09:18.682Z,6.45
2022-11-30T16:11:48.677Z,6.07
2022-11-30T16:14:17.264Z,7.97
2022-11-30T16:16:46.210Z,7.70
2022-11-30T16:19:12.858Z,7.18
2022-11-30T16:21:45.576Z,8.43
2022-11-30T16:24:15.004Z,7.90
2022-11-30T16:26:51.138Z,8.32
2022-11-30T16:29:19.299Z,8.10
2022-11-30T16:31:46.131Z,8.38
2022-11-30T16:34:12.889Z,9.02
2022-11-30T16:36:41.608Z,8.73
2022-11-30T16:39:12.450Z,8.48
2022-11-30T16:41:39.272Z,8.77
2022-11-30T16:44:14.917Z,7.80
2022-11-30T16:46:41.622Z,7.35
2022-11-30T16:49:08.770Z,7.77
2022-11-30T16:51:36.209Z,9.75
2022-11-30T16:54:03.337Z,8.55
2022-11-30T16:56:30.008Z,9.25
2022-11-30T16:58:57.728Z,9.10
2022-11-30T17:01:35.663Z,9.07
2022-11-30T17:04:12.235Z,8.77
2022-11-30T17:06:38.975Z,8.85
2022-11-30T17:09:06.008Z,8.70
2022-11-30T17:11:37.156Z,9.85
2022-11-30T17:14:04.125Z,10.10
2022-11-30T17:16:30.991Z,10.38
2022-11-30T17:18:57.920Z,8.73
2022-11-30T17:21:29.455Z,7.82
2022-11-30T17:23:56.727Z,8.68
2022-11-30T17:26:23.804Z,9.33
2022-11-30T17:28:50.463Z,9.20
2022-11-30T17:31:19.329Z,9.38
2022-11-30T17:33:48.323Z,8.70
2022-11-30T17:36:18.230Z,8.40
2022-11-30T17:38:45.502Z,8.10
2022-11-30T17:41:19.328Z,8.60
2022-11-30T17:43:46.859Z,9.13
2022-11-30T17:46:16.220Z,7.80
2022-11-30T17:48:44.034Z,9.40
2022-11-30T17:51:12.007Z,7.17
2022-11-30T17:53:40.953Z,8.93
2022-11-30T17:56:10.186Z,9.73
2022-11-30T17:58:43.291Z,7.55
2022-11-30T18:01:15.917Z,8.85
2022-11-30T18:03:43.675Z,8.80
2022-11-30T18:06:10.366Z,9.70
2022-11-30T18:08:38.016Z,9.05
2022-11-30T18:11:10.172Z,10.75
2022-11-30T18:13:37.137Z,8.32
2022-11-30T18:16:12.543Z,13.27
2022-11-30T18:18:45.726Z,9.43
2022-11-30T18:21:16.455Z,9.35
2022-11-30T18:23:42.974Z,9.48
2022-11-30T18:26:13.081Z,12.98
2022-11-30T18:28:39.678Z,12.53
2022-11-30T18:31:06.923Z,8.63
2022-11-30T18:33:34.599Z,10.63
2022-11-30T19:56:34.317Z,10.82
2022-11-30T19:59:05.212Z,20.85
2022-11-30T20:01:33.347Z,15.23
2022-11-30T20:04:00.002Z,9.97
2022-11-30T20:06:29.932Z,10.88
2022-11-30T20:08:57.298Z,10.82
2022-11-30T20:11:24.258Z,10.68
2022-11-30T20:13:51.590Z,9.23
2022-11-30T20:16:20.233Z,10.00
2022-11-30T20:18:52.938Z,11.23
2022-11-30T20:21:23.086Z,10.43
2022-11-30T20:23:50.426Z,11.75
2022-11-30T20:26:19.708Z,11.90
2022-11-30T20:28:47.678Z,10.23
2022-11-30T20:31:16.227Z,10.45
2022-11-30T20:33:43.916Z,12.40
2022-11-30T20:36:11.623Z,10.55
2022-11-30T20:38:39.214Z,12.82
2022-11-30T20:41:10.196Z,15.90
2022-11-30T20:43:36.941Z,13.38
2022-11-30T20:46:11.519Z,11.85
2022-11-30T20:48:39.208Z,11.75
2022-11-30T20:54:01.107Z,13.07
2022-11-30T20:56:27.893Z,13.38
2022-11-30T20:58:54.449Z,12.13
2022-11-30T21:01:23.586Z,12.60
2022-11-30T21:03:50.399Z,12.13
2022-11-30T21:06:17.281Z,11.50
2022-11-30T21:08:43.991Z,12.18
2022-11-30T21:11:15.219Z,11.63
2022-11-30T21:13:43.955Z,11.52
2022-11-30T21:16:11.376Z,12.55
2022-11-30T21:18:40.179Z,12.30
2022-11-30T21:21:10.316Z,11.75
2022-11-30T21:23:37.450Z,12.52
2022-11-30T21:26:07.615Z,11.77
2022-11-30T21:28:38.027Z,11.68
2022-11-30T21:31:05.925Z,12.77
2022-11-30T21:33:32.622Z,12.93
2022-11-30T21:35:59.166Z,12.32
2022-11-30T21:38:25.767Z,11.43
2022-11-30T21:41:00.416Z,11.73
2022-11-30T21:43:28.599Z,12.10
2022-11-30T21:46:06.711Z,12.50
2022-11-30T21:48:35.666Z,11.57
2022-11-30T21:51:06.423Z,11.30
2022-11-30T21:53:36.748Z,11.60
2022-11-30T21:56:05.192Z,11.70
2022-11-30T21:58:34.940Z,11.70
2022-11-30T22:01:02.768Z,11.70
2022-11-30T22:03:29.807Z,11.05
2022-11-30T22:06:05.700Z,11.77
2022-11-30T22:08:33.173Z,12.57
2022-11-30T22:11:03.552Z,10.95
2022-11-30T22:13:30.815Z,11.13
2022-11-30T22:15:59.234Z,11.70
2022-11-30T22:18:26.035Z,12.18
2022-11-30T22:20:52.654Z,10.83
2022-11-30T22:23:19.273Z,10.88
2022-11-30T22:25:45.781Z,11.75
2022-11-30T22:28:12.351Z,11.13
2022-11-30T22:30:38.905Z,10.82
2022-11-30T22:33:05.409Z,11.73
2022-11-30T22:35:33.009Z,12.60
2022-11-30T22:37:59.594Z,11.13
2022-11-30T22:40:26.148Z,10.10
2022-11-30T22:42:52.711Z,9.57
2022-11-30T22:45:19.206Z,10.03
2022-11-30T22:47:45.654Z,9.23
2022-11-30T22:50:12.283Z,10.07
2022-11-30T22:53:02.000Z,11.05
2022-11-30T22:55:25.485Z,12.10
2022-11-30T22:57:52.198Z,12.30
2022-11-30T23:00:19.252Z,12.23
2022-11-30T23:02:49.103Z,12.00
2022-11-30T23:05:15.731Z,11.27
2022-11-30T23:07:42.285Z,10.13
2022-11-30T23:10:11.042Z,12.20
2022-11-30T23:12:58.621Z,11.52
2022-11-30T23:15:24.037Z,11.82
2022-11-30T23:17:50.965Z,10.90
2022-11-30T23:20:17.663Z,11.70
2022-11-30T23:22:44.304Z,12.20
2022-11-30T23:25:10.835Z,12.63
2022-11-30T23:27:37.373Z,10.60
2022-11-30T23:30:04.846Z,12.23
2022-11-30T23:32:31.368Z,14.45
2022-11-30T23:34:58.945Z,12.33
2022-11-30T23:37:25.450Z,12.57
2022-11-30T23:39:51.945Z,12.13
2022-11-30T23:42:18.452Z,12.93
2022-11-30T23:44:44.949Z,14.05
2022-11-30T23:47:16.832Z,12.97
2022-11-30T23:49:44.732Z,12.75
2022-11-30T23:52:11.271Z,12.45
2022-11-30T23:54:37.812Z,12.93
2022-11-30T23:57:04.303Z,12.80
2022-11-30T23:59:30.866Z,12.50
